createdAt,value
2023-03-23T00:01:33.464Z,96880.31
2023-03-23T00:04:02.389Z,96881.25
2023-03-23T00:06:34.321Z,96881.25
2023-03-23T00:09:04.934Z,96888.22
2023-03-23T00:11:34.892Z,96873.34
2023-03-23T00:14:03.687Z,96871.84
2023-03-23T00:16:34.119Z,96866.19
2023-03-23T00:19:07.541Z,96862.59
2023-03-23T00:21:37.722Z,96862.03
2023-03-23T00:24:18.415Z,96868.44
2023-03-23T00:26:50.420Z,96869.19
2023-03-23T00:29:22.486Z,96861.28
2023-03-23T00:31:53.355Z,96855.63
2023-03-23T00:34:22.932Z,96855.63
2023-03-23T00:36:54.753Z,96853.38
2023-03-23T00:39:21.729Z,96843.94
2023-03-23T00:41:50.385Z,96836.56
2023-03-23T00:44:21.882Z,96834.13
2023-03-23T00:46:51.154Z,96833.34
2023-03-23T00:49:21.019Z,96841.06
2023-03-23T00:51:48.081Z,96832.19
2023-03-23T00:54:15.370Z,96837.84
2023-03-23T00:56:43.149Z,96837.47
2023-03-23T00:59:10.681Z,96834.44
2023-03-23T01:01:39.105Z,96831.41
2023-03-23T01:04:07.288Z,96837.06
2023-03-23T01:06:41.120Z,96828.38
2023-03-23T01:09:18.281Z,96829.69
2023-03-23T01:11:46.126Z,96836.66
2023-03-23T01:14:14.873Z,96832.34
2023-03-23T01:16:45.828Z,96829.50
2023-03-23T01:19:13.903Z,96825.56
2023-03-23T01:21:41.256Z,96824.03
2023-03-23T01:24:09.091Z,96827.09
2023-03-23T01:26:36.805Z,96819.16
2023-03-23T01:29:03.919Z,96822.38
2023-03-23T01:31:30.864Z,96819.94
2023-03-23T01:33:57.953Z,96822.38
2023-03-23T01:36:30.322Z,96817.16
2023-03-23T01:39:06.666Z,96816.41
2023-03-23T01:41:35.603Z,96815.25
2023-03-23T01:44:09.485Z,96810.00
2023-03-23T01:46:43.639Z,96812.81
2023-03-23T01:49:16.594Z,96802.47
2023-03-23T01:51:51.561Z,96799.84
2023-03-23T01:54:22.446Z,96805.50
2023-03-23T01:57:03.930Z,96803.59
2023-03-23T01:59:33.921Z,96796.47
2023-03-23T02:02:37.326Z,96799.84
2023-03-23T02:05:12.973Z,96800.03
2023-03-23T02:07:42.189Z,96796.81
2023-03-23T02:10:10.071Z,96802.47
2023-03-23T02:12:37.469Z,96795.50
2023-03-23T02:15:07.273Z,96797.56
2023-03-23T02:18:05.074Z,96789.66
2023-03-23T02:20:57.198Z,96794.56
2023-03-23T02:23:54.183Z,96779.47
2023-03-23T02:26:36.459Z,96769.28
2023-03-23T02:29:15.931Z,96765.31
2023-03-23T02:32:00.316Z,96758.34
2023-03-23T02:34:36.780Z,96757.97
2023-03-23T02:37:10.471Z,96767.56
2023-03-23T02:39:59.184Z,96755.31
2023-03-23T02:42:33.508Z,96754.72
2023-03-23T02:45:07.578Z,96756.59
2023-03-23T02:47:36.832Z,96744.34
2023-03-23T02:50:08.670Z,96753.56
2023-03-23T02:52:41.377Z,96748.13
2023-03-23T02:55:09.664Z,96741.19
2023-03-23T02:57:40.584Z,96744.19
2023-03-23T03:00:17.280Z,96747.22
2023-03-23T03:02:53.844Z,96740.22
2023-03-23T03:05:30.212Z,96744.38
2023-03-23T03:08:05.037Z,96749.28
2023-03-23T03:10:45.490Z,96744.19
2023-03-23T03:13:29.347Z,96751.16
2023-03-23T03:16:09.299Z,96758.31
2023-03-23T03:18:47.668Z,96737.22
2023-03-23T03:21:21.326Z,96747.00
2023-03-23T03:23:50.676Z,96745.69
2023-03-23T03:26:21.959Z,96750.03
2023-03-23T03:28:55.028Z,96735.72
2023-03-23T03:31:30.778Z,96741.34
2023-03-23T03:33:58.868Z,96747.00
2023-03-23T03:36:35.506Z,96737.78
2023-03-23T03:39:09.487Z,96731.56
2023-03-23T03:41:39.050Z,96725.94
2023-03-23T03:44:07.302Z,96733.66
2023-03-23T03:46:37.029Z,96731.56
2023-03-23T03:49:06.759Z,96733.66
2023-03-23T03:51:37.385Z,96739.28
2023-03-23T03:54:06.557Z,96742.88
2023-03-23T03:56:37.301Z,96733.66
2023-03-23T03:59:21.565Z,96749.66
2023-03-23T04:02:09.653Z,96749.66
2023-03-23T04:04:38.218Z,96736.09
2023-03-23T04:07:06.417Z,96736.63
2023-03-23T04:09:33.770Z,96736.84
2023-03-23T04:12:01.004Z,96725.53
2023-03-23T04:14:57.297Z,96733.06
2023-03-23T04:17:37.173Z,96726.66
2023-03-23T04:20:13.715Z,96723.63
2023-03-23T04:22:44.789Z,96719.66
2023-03-23T04:25:13.796Z,96724.75
2023-03-23T04:27:47.352Z,96723.22
2023-03-23T04:30:15.237Z,96728.88
2023-03-23T04:32:46.978Z,96728.88
2023-03-23T04:35:21.109Z,96726.22
2023-03-23T04:37:55.408Z,96733.00
2023-03-23T04:40:23.904Z,96725.50
2023-03-23T04:43:07.984Z,96727.00
2023-03-23T04:46:01.317Z,96714.22
2023-03-23T04:48:31.606Z,96726.22
2023-03-23T04:51:07.240Z,96728.88
2023-03-23T04:53:34.656Z,96728.13
2023-03-23T04:56:02.878Z,96735.84
2023-03-23T04:58:36.089Z,96730.72
2023-03-23T05:01:19.242Z,96731.69
2023-03-23T05:03:56.945Z,96726.97
2023-03-23T05:06:23.841Z,96724.16
2023-03-23T05:08:54.698Z,96732.22
2023-03-23T05:11:23.736Z,96733.38
2023-03-23T05:13:51.199Z,96735.78
2023-03-23T05:16:21.156Z,96732.56
2023-03-23T05:18:49.140Z,96735.00
2023-03-23T05:21:18.153Z,96733.28
2023-03-23T05:23:56.002Z,96731.78
2023-03-23T05:26:24.999Z,96740.81
2023-03-23T05:28:57.157Z,96738.91
2023-03-23T05:31:46.062Z,96748.31
2023-03-23T05:34:13.296Z,96749.63
2023-03-23T05:36:48.349Z,96753.78
2023-03-23T05:39:33.754Z,96749.63
2023-03-23T05:42:20.178Z,96746.63
2023-03-23T05:44:54.569Z,96750.19
2023-03-23T05:47:22.251Z,96745.31
2023-03-23T05:49:56.242Z,96751.91
2023-03-23T05:52:26.453Z,96741.16
2023-03-23T05:54:54.741Z,96740.06
2023-03-23T05:57:23.685Z,96747.22
2023-03-23T06:00:00.858Z,96752.28
2023-03-23T06:02:30.677Z,96747.63
2023-03-23T06:04:58.775Z,96750.44
2023-03-23T06:07:30.259Z,96762.88
2023-03-23T06:10:05.979Z,96765.13
2023-03-23T06:12:38.848Z,96761.94
2023-03-23T06:15:30.449Z,96762.91
2023-03-23T06:18:09.439Z,96756.34
2023-03-23T06:20:56.450Z,96762.75
2023-03-23T06:23:31.662Z,96757.28
2023-03-23T06:26:06.546Z,96766.50
2023-03-23T06:28:34.983Z,96767.44
2023-03-23T06:31:07.603Z,96767.66
2023-03-23T06:33:39.515Z,96764.06
2023-03-23T06:36:28.160Z,96766.91
2023-03-23T06:39:11.123Z,96783.06
2023-03-23T06:41:55.080Z,96792.69
2023-03-23T06:44:22.077Z,96795.88
2023-03-23T06:46:50.064Z,96797.72
2023-03-23T06:49:21.220Z,96802.44
2023-03-23T06:52:02.667Z,96806.91
2023-03-23T06:54:31.084Z,96818.56
2023-03-23T06:57:00.719Z,96812.72
2023-03-23T06:59:27.725Z,96816.84
2023-03-23T07:01:55.061Z,96810.44
2023-03-23T07:04:22.492Z,96813.84
2023-03-23T07:06:58.148Z,96822.84
2023-03-23T07:09:37.721Z,96822.09
2023-03-23T07:12:10.928Z,96818.31
2023-03-23T07:14:44.826Z,96817.78
2023-03-23T07:17:12.981Z,96825.13
2023-03-23T07:19:49.597Z,96829.09
2023-03-23T07:22:18.180Z,96829.28
2023-03-23T07:24:51.170Z,96830.25
2023-03-23T07:27:24.567Z,96839.69
2023-03-23T07:29:54.481Z,96837.81
2023-03-23T07:32:26.447Z,96839.31
2023-03-23T07:34:54.415Z,96841.03
2023-03-23T07:37:29.909Z,96839.91
2023-03-23T07:39:59.525Z,96839.91
2023-03-23T07:42:26.496Z,96842.75
2023-03-23T07:44:59.089Z,96835.56
2023-03-23T07:47:26.433Z,96834.28
2023-03-23T07:50:01.597Z,96824.09
2023-03-23T07:52:37.612Z,96838.00
2023-03-23T07:55:07.722Z,96837.97
2023-03-23T07:57:49.733Z,96848.66
2023-03-23T08:00:21.292Z,96844.63
2023-03-23T08:02:51.390Z,96841.78
2023-03-23T08:05:37.328Z,96837.56
2023-03-23T08:08:16.372Z,96842.97
2023-03-23T08:11:10.232Z,96847.44
2023-03-23T08:13:54.507Z,96837.63
2023-03-23T08:16:41.026Z,96845.69
2023-03-23T08:19:19.614Z,96841.34
2023-03-23T08:22:05.947Z,96839.16
2023-03-23T08:24:42.323Z,96842.16
2023-03-23T08:27:38.962Z,96842.91
2023-03-23T08:30:32.140Z,96852.00
2023-03-23T08:33:22.722Z,96845.25
2023-03-23T08:36:16.827Z,96857.28
2023-03-23T08:39:09.517Z,96859.88
2023-03-23T08:42:08.755Z,96861.75
2023-03-23T08:44:54.043Z,96865.13
2023-03-23T08:47:53.240Z,96857.22
2023-03-23T08:50:39.001Z,96860.59
2023-03-23T08:53:26.173Z,96866.25
2023-03-23T08:56:11.230Z,96856.47
2023-03-23T08:58:47.794Z,96862.13
2023-03-23T09:01:33.324Z,96863.41
2023-03-23T09:04:18.804Z,96862.59
2023-03-23T09:07:04.934Z,96868.03
2023-03-23T09:09:31.971Z,96866.13
2023-03-23T09:12:18.090Z,96874.59
2023-03-23T09:14:45.190Z,96877.59
2023-03-23T09:17:12.369Z,96871.78
2023-03-23T09:19:39.863Z,96871.41
2023-03-23T09:22:06.872Z,96879.00
2023-03-23T09:24:34.107Z,96871.47
2023-03-23T09:27:01.124Z,96874.50
2023-03-23T09:29:28.345Z,96876.00
2023-03-23T09:31:55.731Z,96880.69
2023-03-23T09:34:23.538Z,96879.19
2023-03-23T09:36:51.230Z,96879.94
2023-03-23T09:39:18.392Z,96879.94
2023-03-23T09:42:12.800Z,96882.41
2023-03-23T09:44:46.824Z,96880.56
2023-03-23T09:47:37.972Z,96878.34
2023-03-23T09:50:18.553Z,96878.06
2023-03-23T09:52:53.331Z,96878.09
2023-03-23T09:55:22.067Z,96870.25
2023-03-23T09:57:56.694Z,96880.06
2023-03-23T10:00:33.870Z,96891.34
2023-03-23T10:03:07.751Z,96890.81
2023-03-23T10:05:38.023Z,96887.22
2023-03-23T10:08:20.086Z,96888.75
2023-03-23T10:10:59.296Z,96886.13
2023-03-23T10:13:38.520Z,96891.75
2023-03-23T10:16:11.766Z,96898.38
2023-03-23T10:18:44.711Z,96902.28
2023-03-23T10:21:22.467Z,96903.03
2023-03-23T10:24:00.544Z,96913.97
2023-03-23T10:26:42.096Z,96921.91
2023-03-23T10:29:15.278Z,96916.25
2023-03-23T10:31:47.949Z,96931.13
2023-03-23T10:34:31.253Z,96919.31
2023-03-23T10:37:07.530Z,96915.16
2023-03-23T10:39:58.596Z,96915.72
2023-03-23T10:42:33.091Z,96916.66
2023-03-23T10:45:26.897Z,96914.06
2023-03-23T10:48:27.370Z,96917.47
2023-03-23T10:50:57.716Z,96914.50
2023-03-23T10:53:33.549Z,96912.81
2023-03-23T10:56:00.891Z,96932.38
2023-03-23T10:58:33.670Z,96923.38
2023-03-23T11:01:03.186Z,96917.72
2023-03-23T11:03:42.100Z,96916.63
2023-03-23T11:06:20.384Z,96910.78
2023-03-23T11:08:57.808Z,96920.03
2023-03-23T11:11:31.125Z,96908.16
2023-03-23T11:14:00.857Z,96909.31
2023-03-23T11:16:35.249Z,96913.13
2023-03-23T11:19:15.172Z,96909.56
2023-03-23T11:21:48.976Z,96897.00
2023-03-23T11:24:15.829Z,96914.19
2023-03-23T11:26:56.804Z,96905.72
2023-03-23T11:29:27.995Z,96906.09
2023-03-23T11:32:07.732Z,96901.22
2023-03-23T11:34:41.402Z,96898.44
2023-03-23T11:37:14.188Z,96905.81
2023-03-23T11:39:58.238Z,96905.88
2023-03-23T11:42:36.218Z,96906.63
2023-03-23T11:45:18.550Z,96910.84
2023-03-23T11:48:00.127Z,96898.03
2023-03-23T11:50:32.610Z,96894.63
2023-03-23T11:52:59.475Z,96893.50
2023-03-23T11:55:33.355Z,96890.25
2023-03-23T11:58:12.282Z,96897.81
2023-03-23T12:00:44.691Z,96897.97
2023-03-23T12:04:02.058Z,96897.59
2023-03-23T12:07:04.435Z,96900.59
2023-03-23T12:09:40.554Z,96897.59
2023-03-23T12:12:20.284Z,96898.34
2023-03-23T12:15:27.626Z,96901.94
2023-03-23T12:18:25.632Z,96910.44
2023-03-23T12:21:17.939Z,96905.16
2023-03-23T12:24:14.891Z,96917.94
2023-03-23T12:27:01.864Z,96925.44
2023-03-23T12:29:45.128Z,96919.19
2023-03-23T12:32:53.902Z,96926.09
2023-03-23T12:35:27.506Z,96918.91
2023-03-23T12:38:02.192Z,96910.72
2023-03-23T12:40:41.257Z,96914.91
2023-03-23T12:43:13.582Z,96916.22
2023-03-23T12:46:05.215Z,96912.16
2023-03-23T12:48:41.263Z,96903.13
2023-03-23T12:51:33.807Z,96908.06
2023-03-23T12:54:22.466Z,96898.25
2023-03-23T12:57:18.797Z,96900.53
2023-03-23T13:00:13.187Z,96895.63
2023-03-23T13:02:43.445Z,96892.06
2023-03-23T13:05:27.684Z,96893.78
2023-03-23T13:08:12.044Z,96891.56
2023-03-23T13:10:46.040Z,96889.66
2023-03-23T13:13:23.823Z,96888.91
2023-03-23T13:16:02.744Z,96876.66
2023-03-23T13:18:39.273Z,96884.00
2023-03-23T13:21:18.864Z,96890.03
2023-03-23T13:23:55.840Z,96870.97
2023-03-23T13:26:24.224Z,96870.78
2023-03-23T13:29:00.284Z,96858.72
2023-03-23T13:31:31.660Z,96861.75
2023-03-23T13:34:04.889Z,96861.00
2023-03-23T13:36:40.970Z,96865.13
2023-03-23T13:39:25.481Z,96864.00
2023-03-23T13:42:04.462Z,96864.97
2023-03-23T13:44:49.055Z,96861.75
2023-03-23T13:47:22.106Z,96860.22
2023-03-23T13:49:53.769Z,96864.31
2023-03-23T13:52:38.132Z,96866.00
2023-03-23T13:55:17.309Z,96857.13
2023-03-23T13:57:51.680Z,96863.72
2023-03-23T14:00:33.574Z,96858.25
2023-03-23T14:03:11.264Z,96856.34
2023-03-23T14:05:41.001Z,96835.25
2023-03-23T14:08:11.069Z,96828.47
2023-03-23T14:10:49.855Z,96831.50
2023-03-23T14:13:21.625Z,96821.91
2023-03-23T14:16:00.372Z,96823.59
2023-03-23T14:18:37.229Z,96825.31
2023-03-23T14:21:05.725Z,96836.63
2023-03-23T14:23:38.751Z,96842.84
2023-03-23T14:26:15.457Z,96850.72
2023-03-23T14:28:46.628Z,96843.56
2023-03-23T14:31:19.668Z,96855.22
2023-03-23T14:33:49.323Z,96845.06
2023-03-23T14:36:31.161Z,96831.47
2023-03-23T14:39:18.027Z,96829.22
2023-03-23T14:41:45.608Z,96832.22
2023-03-23T14:44:19.548Z,96830.91
2023-03-23T14:46:47.260Z,96840.16
2023-03-23T14:49:20.429Z,96833.38
2023-03-23T14:51:55.773Z,96849.03
2023-03-23T14:54:30.235Z,96845.66
2023-03-23T14:56:57.187Z,96859.19
2023-03-23T14:59:24.095Z,96857.72
2023-03-23T15:01:52.370Z,96853.53
2023-03-23T15:04:22.620Z,96851.47
2023-03-23T15:06:54.187Z,96854.69
2023-03-23T15:09:23.891Z,96850.72
2023-03-23T15:12:03.628Z,96839.41
2023-03-23T15:14:32.292Z,96845.81
2023-03-23T15:17:01.715Z,96857.88
2023-03-23T15:19:35.211Z,96846.56
2023-03-23T15:22:19.463Z,96842.63
2023-03-23T15:24:46.312Z,96843.38
2023-03-23T15:27:34.128Z,96852.06
2023-03-23T15:30:13.467Z,96856.38
2023-03-23T15:32:42.648Z,96859.41
2023-03-23T15:35:24.457Z,96857.88
2023-03-23T15:38:00.810Z,96858.28
2023-03-23T15:40:36.642Z,96854.50
2023-03-23T15:43:25.731Z,96852.06
2023-03-23T15:45:56.579Z,96856.59
2023-03-23T15:48:24.775Z,96852.47
2023-03-23T15:50:52.538Z,96847.94
2023-03-23T15:53:28.272Z,96844.53
2023-03-23T15:55:55.546Z,96848.13
2023-03-23T15:58:22.571Z,96841.38
2023-03-23T16:00:52.385Z,96843.59
2023-03-23T16:03:28.870Z,96852.84
2023-03-23T16:05:57.822Z,96845.13
2023-03-23T16:08:24.983Z,96853.44
2023-03-23T16:10:51.914Z,96854.91
2023-03-23T16:13:18.888Z,96859.81
2023-03-23T16:15:48.617Z,96860.19
2023-03-23T16:18:19.862Z,96863.78
2023-03-23T16:20:48.194Z,96866.59
2023-03-23T16:23:16.026Z,96862.47
2023-03-23T16:25:43.468Z,96868.88
2023-03-23T16:28:14.626Z,96864.75
2023-03-23T16:30:43.203Z,96868.88
2023-03-23T16:33:10.929Z,96863.59
2023-03-23T16:35:38.186Z,96869.25
2023-03-23T16:38:07.809Z,96866.03
2023-03-23T16:40:37.473Z,96868.88
2023-03-23T16:43:08.779Z,96878.06
2023-03-23T16:45:38.586Z,96868.09
2023-03-23T16:48:06.756Z,96870.72
2023-03-23T16:50:36.102Z,96867.72
2023-03-23T16:53:04.684Z,96871.09
2023-03-23T16:55:31.801Z,96878.06
2023-03-23T16:58:13.075Z,96876.00
2023-03-23T17:00:47.653Z,96874.31
2023-03-23T17:03:16.827Z,96881.25
2023-03-23T17:05:45.652Z,96872.22
2023-03-23T17:08:13.695Z,96870.34
2023-03-23T17:10:41.570Z,96874.84
2023-03-23T17:13:08.783Z,96881.25
2023-03-23T17:15:41.383Z,96871.09
2023-03-23T17:18:09.172Z,96871.25
2023-03-23T17:20:36.624Z,96876.34
2023-03-23T17:23:04.357Z,96872.56
2023-03-23T17:25:32.112Z,96877.66
2023-03-23T17:28:05.509Z,96874.06
2023-03-23T17:30:33.988Z,96882.72
2023-03-23T17:33:01.052Z,96878.22
2023-03-23T17:35:28.166Z,96878.75
2023-03-23T17:37:57.696Z,96885.53
2023-03-23T17:40:25.025Z,96884.03
2023-03-23T17:42:52.442Z,96883.47
2023-03-23T17:45:19.632Z,96884.41
2023-03-23T17:47:47.143Z,96894.00
2023-03-23T17:50:14.432Z,96893.25
2023-03-23T17:52:43.733Z,96896.66
2023-03-23T17:55:11.929Z,96891.00
2023-03-23T17:57:39.261Z,96888.34
2023-03-23T18:00:09.104Z,96893.44
2023-03-23T18:02:37.513Z,96896.44
2023-03-23T18:05:06.679Z,96911.34
2023-03-23T18:07:34.137Z,96908.31
2023-03-23T18:10:01.646Z,96911.13
2023-03-23T18:12:28.679Z,96907.00
2023-03-23T18:14:59.338Z,96904.00
2023-03-23T18:17:27.251Z,96906.06
2023-03-23T18:19:54.769Z,96907.56
2023-03-23T18:22:24.677Z,96906.22
2023-03-23T18:24:52.431Z,96900.03
2023-03-23T18:27:19.375Z,96894.38
2023-03-23T18:29:46.527Z,96893.78
2023-03-23T18:32:13.549Z,96893.78
2023-03-23T18:34:43.640Z,96886.81
2023-03-23T18:37:10.836Z,96882.09
2023-03-23T18:39:38.783Z,96868.94
2023-03-23T18:42:06.492Z,96881.53
2023-03-23T18:44:34.603Z,96881.53
2023-03-23T18:47:01.645Z,96877.41
2023-03-23T18:49:29.321Z,96875.50
2023-03-23T18:51:56.572Z,96886.97
2023-03-23T18:54:23.540Z,96894.16
2023-03-23T18:56:50.546Z,96885.28
2023-03-23T18:59:17.783Z,96889.63
2023-03-23T19:01:45.019Z,96893.75
2023-03-23T19:04:14.006Z,96895.81
2023-03-23T19:06:41.680Z,96900.72
2023-03-23T19:09:09.347Z,96899.41
2023-03-23T19:11:37.758Z,96899.94
2023-03-23T19:14:05.395Z,96904.25
2023-03-23T19:16:36.222Z,96905.56
2023-03-23T19:19:04.513Z,96897.47
2023-03-23T19:21:34.575Z,96902.34
2023-03-23T19:24:03.316Z,96898.00
2023-03-23T19:26:41.887Z,96898.22
2023-03-23T19:31:45.023Z,96893.34
2023-03-23T19:34:14.665Z,96892.56
2023-03-23T19:36:42.045Z,96893.88
2023-03-23T19:39:16.927Z,96894.84
2023-03-23T19:41:45.741Z,96890.69
2023-03-23T19:44:12.984Z,96901.81
2023-03-23T19:46:39.973Z,96896.16
2023-03-23T19:49:07.640Z,96889.19
2023-03-23T19:51:35.000Z,96898.22
2023-03-23T19:54:02.125Z,96887.69
2023-03-23T19:56:30.717Z,96896.69
2023-03-23T19:58:58.050Z,96885.63
2023-03-23T20:06:21.294Z,96891.25
2023-03-23T20:08:48.783Z,96886.38
2023-03-23T20:11:19.700Z,96888.63
2023-03-23T20:13:49.072Z,96893.91
2023-03-23T20:16:17.770Z,96887.50
2023-03-23T20:18:46.515Z,96878.47
2023-03-23T20:21:19.952Z,96871.31
2023-03-23T20:23:49.745Z,96874.91
2023-03-23T20:26:19.930Z,96870.75
2023-03-23T20:28:47.811Z,96870.75
2023-03-23T20:31:23.442Z,96862.69
2023-03-23T20:34:02.364Z,96864.19
2023-03-23T20:36:38.531Z,96871.38
2023-03-23T20:39:08.465Z,96875.88
2023-03-23T20:41:39.127Z,96865.34
2023-03-23T20:44:08.632Z,96877.41
2023-03-23T20:46:36.826Z,96877.78
2023-03-23T20:49:06.311Z,96876.25
2023-03-23T20:51:33.814Z,96873.97
2023-03-23T20:54:02.240Z,96869.63
2023-03-23T20:56:29.937Z,96863.81
2023-03-23T20:58:57.007Z,96872.28
2023-03-23T21:01:24.938Z,96873.59
2023-03-23T21:03:54.814Z,96873.03
2023-03-23T21:06:21.847Z,96865.31
2023-03-23T21:08:52.912Z,96869.63
2023-03-23T21:11:23.250Z,96861.16
2023-03-23T21:13:51.192Z,96873.63
2023-03-23T21:16:19.350Z,96859.69
2023-03-23T21:18:47.896Z,96856.28
2023-03-23T21:21:18.506Z,96860.09
2023-03-23T21:23:47.151Z,96846.50
2023-03-23T21:26:17.252Z,96854.06
2023-03-23T21:28:47.110Z,96848.22
2023-03-23T21:31:15.235Z,96834.44
2023-03-23T21:33:42.303Z,96835.59
2023-03-23T21:36:10.353Z,96828.47
2023-03-23T21:38:38.533Z,96834.84
2023-03-23T21:41:13.881Z,96829.94
2023-03-23T21:43:41.068Z,96825.81
2023-03-23T21:46:09.783Z,96825.25
2023-03-23T21:48:38.940Z,96823.94
2023-03-23T21:51:12.268Z,96819.59
2023-03-23T21:53:39.519Z,96816.03
2023-03-23T21:56:10.040Z,96813.75
2023-03-23T21:58:38.622Z,96803.56
2023-03-23T22:01:08.735Z,96793.03
2023-03-23T22:03:54.336Z,96790.22
2023-03-23T22:06:42.024Z,96794.13
2023-03-23T22:09:10.738Z,96799.78
2023-03-23T22:11:38.769Z,96794.34
2023-03-23T22:14:07.032Z,96794.13
2023-03-23T22:16:35.240Z,96790.56
2023-03-23T22:19:06.402Z,96782.66
2023-03-23T22:21:34.137Z,96785.84
2023-03-23T22:24:02.131Z,96779.81
2023-03-23T22:26:30.268Z,96774.50
2023-03-23T22:28:58.121Z,96775.84
2023-03-23T22:31:30.785Z,96762.28
2023-03-23T22:33:59.560Z,96767.00
2023-03-23T22:36:27.895Z,96760.00
2023-03-23T22:38:56.537Z,96753.97
2023-03-23T22:41:26.871Z,96751.72
2023-03-23T22:43:56.669Z,96745.09
2023-03-23T22:46:26.722Z,96750.75
2023-03-23T22:48:53.938Z,96736.47
2023-03-23T22:51:22.367Z,96747.34
2023-03-23T22:53:50.936Z,96731.50
2023-03-23T22:56:19.663Z,96731.09
2023-03-23T22:58:46.683Z,96725.06
2023-03-23T23:01:20.842Z,96720.94
2023-03-23T23:03:49.982Z,96714.91
2023-03-23T23:06:18.413Z,96730.31
2023-03-23T23:08:47.019Z,96730.31
2023-03-23T23:11:18.146Z,96735.59
2023-03-23T23:13:45.424Z,96725.22
2023-03-23T23:16:17.648Z,96716.34
2023-03-23T23:18:48.583Z,96720.47
2023-03-23T23:21:18.761Z,96709.94
2023-03-23T23:23:46.819Z,96709.94
2023-03-23T23:26:15.652Z,96713.53
2023-03-23T23:28:45.040Z,96711.47
2023-03-23T23:31:29.576Z,96706.59
2023-03-23T23:33:58.384Z,96708.81
2023-03-23T23:36:28.356Z,96704.69
2023-03-23T23:38:57.670Z,96697.75
2023-03-23T23:41:25.150Z,96700.56
2023-03-23T23:43:52.155Z,96706.22
2023-03-23T23:46:19.188Z,96695.47
2023-03-23T23:48:46.798Z,96706.22
2023-03-23T23:51:15.659Z,96701.31
2023-03-23T23:53:44.504Z,96702.84
2023-03-23T23:56:13.455Z,96708.47
2023-03-23T23:58:40.445Z,96704.91
